Terminal Aerodrome Forecast
Issued by NWS

Home | Current Version | Previous Version | Text Only | Print | Product List | Glossary On
Versions: 1 2 3 4 5 6 7 8 9 10 11 12 13 14 15 16 17 18 19 20 21 22 23 24
000
FTUS44 KMAF 260524
TAFHOB
TAF
KHOB 260524Z 2606/2706 11006KT P6SM SCT030 BKN080
     FM260800 09008KT P6SM OVC025
     FM261600 06012KT P6SM BKN015 OVC250
      TEMPO 2618/2622 3SM TSRA BKN020CB
     FM262200 05015KT P6SM BKN030 BKN250
      TEMPO 2622/2702 TSRA BKN020CB=

USA.gov is the U.S. government's official web portal to all federal, state and local government web resources and services.